createdAt,value
2018-12-26T00:01:37.264Z,34.03
2018-12-26T00:04:05.895Z,26.17
2018-12-26T00:06:34.489Z,22.53
2018-12-26T00:09:04.677Z,24.00
2018-12-26T00:11:33.167Z,35.63
2018-12-26T00:14:01.675Z,30.03
2018-12-26T00:16:30.135Z,29.40
2018-12-26T00:18:58.658Z,33.77
2018-12-26T00:21:27.154Z,33.13
2018-12-26T00:24:11.612Z,25.10
2018-12-26T00:26:40.455Z,30.33
2018-12-26T00:29:08.892Z,27.17
2018-12-26T00:31:37.343Z,30.80
2018-12-26T00:34:05.799Z,26.83
2018-12-26T00:36:37.240Z,29.17
2018-12-26T00:39:06.791Z,26.80
2018-12-26T00:41:35.311Z,25.43
2018-12-26T00:44:06.436Z,27.13
2018-12-26T00:46:34.937Z,34.30
2018-12-26T00:49:03.379Z,35.90
2018-12-26T00:51:31.889Z,32.50
2018-12-26T00:54:00.520Z,37.17
2018-12-26T00:56:29.012Z,34.30
2018-12-26T00:58:57.512Z,41.60
2018-12-26T01:01:25.996Z,38.40
2018-12-26T01:03:54.474Z,37.40
2018-12-26T01:06:22.984Z,39.10
2018-12-26T01:08:51.438Z,36.50
2018-12-26T01:11:19.940Z,28.53
2018-12-26T01:13:48.468Z,25.73
2018-12-26T01:16:16.938Z,32.13
2018-12-26T01:18:45.367Z,30.90
2018-12-26T01:21:13.864Z,26.20
2018-12-26T01:23:42.296Z,27.43
2018-12-26T01:26:18.957Z,30.50
2018-12-26T01:28:40.904Z,22.07
2018-12-26T01:31:09.376Z,25.63
2018-12-26T01:33:37.800Z,26.50
2018-12-26T01:36:06.270Z,25.77
2018-12-26T01:38:34.724Z,36.17
2018-12-26T01:41:03.165Z,43.07
2018-12-26T01:43:31.642Z,35.50
2018-12-26T01:46:00.103Z,72.57
2018-12-26T01:48:28.563Z,49.17
2018-12-26T01:50:56.999Z,71.70
2018-12-26T01:53:25.525Z,73.27
2018-12-26T01:55:53.961Z,45.93
2018-12-26T01:58:22.620Z,40.63
2018-12-26T02:00:51.027Z,64.57
2018-12-26T02:03:19.597Z,58.67
2018-12-26T02:05:48.132Z,65.40
2018-12-26T02:08:16.579Z,64.97
2018-12-26T02:10:45.014Z,36.77
2018-12-26T02:13:13.486Z,39.53
2018-12-26T02:15:41.939Z,51.43
2018-12-26T02:18:10.371Z,99.57
2018-12-26T02:20:38.785Z,58.53
2018-12-26T02:23:07.231Z,56.47
2018-12-26T02:25:35.757Z,56.67
2018-12-26T02:28:04.215Z,73.73
2018-12-26T02:30:32.656Z,58.33
2018-12-26T02:33:01.101Z,46.63
2018-12-26T02:35:29.562Z,41.53
2018-12-26T02:37:58.008Z,27.33
2018-12-26T02:40:26.456Z,28.00
2018-12-26T02:42:54.883Z,25.27
2018-12-26T02:45:23.328Z,26.20
2018-12-26T02:47:51.735Z,22.73
2018-12-26T02:50:20.185Z,24.73
2018-12-26T02:52:48.603Z,24.97
2018-12-26T02:55:17.076Z,23.33
2018-12-26T02:57:45.570Z,21.60
2018-12-26T03:00:14.035Z,26.23
2018-12-26T03:02:42.458Z,33.53
2018-12-26T03:05:10.939Z,28.13
2018-12-26T03:07:39.390Z,36.63
2018-12-26T03:10:08.010Z,26.83
2018-12-26T03:12:36.437Z,40.33
2018-12-26T03:15:07.164Z,25.77
2018-12-26T03:17:35.612Z,40.30
2018-12-26T03:20:04.215Z,30.27
2018-12-26T03:22:32.686Z,30.17
2018-12-26T03:25:01.146Z,38.67
2018-12-26T03:27:29.596Z,44.97
2018-12-26T03:29:58.052Z,78.47
2018-12-26T03:32:26.523Z,51.90
2018-12-26T03:34:54.968Z,28.93
2018-12-26T03:37:23.421Z,107.57
2018-12-26T03:39:51.867Z,58.37
2018-12-26T03:42:20.408Z,61.33
2018-12-26T03:44:49.435Z,84.33
2018-12-26T03:47:18.093Z,85.27
2018-12-26T03:49:46.526Z,63.73
2018-12-26T03:52:15.028Z,52.80
2018-12-26T03:54:43.527Z,62.33
2018-12-26T03:57:11.939Z,38.97
2018-12-26T03:59:40.367Z,29.57
2018-12-26T04:02:08.851Z,44.53
2018-12-26T04:04:37.278Z,41.90
2018-12-26T04:07:05.752Z,30.43
2018-12-26T04:09:34.192Z,52.20
2018-12-26T04:12:02.628Z,30.97
2018-12-26T04:14:31.059Z,23.70
2018-12-26T04:16:59.487Z,22.93
2018-12-26T04:19:27.940Z,25.33
2018-12-26T04:21:56.556Z,29.47
2018-12-26T04:24:24.986Z,18.53
2018-12-26T04:26:53.412Z,41.57
2018-12-26T04:29:21.861Z,17.97
2018-12-26T04:31:50.311Z,26.60
2018-12-26T04:34:18.767Z,30.77
2018-12-26T04:36:47.223Z,41.57
2018-12-26T04:39:15.701Z,19.40
2018-12-26T04:41:44.192Z,19.10
2018-12-26T04:44:12.761Z,42.73
2018-12-26T04:46:41.157Z,30.57
2018-12-26T04:49:09.596Z,24.87
2018-12-26T04:51:38.052Z,21.57
2018-12-26T04:54:06.487Z,17.70
2018-12-26T04:56:34.920Z,19.47
2018-12-26T04:59:03.366Z,20.10
2018-12-26T05:01:31.871Z,17.47
2018-12-26T05:04:00.303Z,16.17
2018-12-26T05:06:28.722Z,17.87
2018-12-26T05:08:57.170Z,19.47
2018-12-26T05:11:25.663Z,18.20
2018-12-26T05:13:54.133Z,22.43
2018-12-26T05:16:22.577Z,19.13
2018-12-26T05:18:51.456Z,34.43
2018-12-26T05:21:20.382Z,25.10
2018-12-26T05:23:48.833Z,28.70
2018-12-26T05:26:17.257Z,19.10
2018-12-26T05:28:45.706Z,19.87
2018-12-26T05:31:14.207Z,25.17
2018-12-26T05:33:42.719Z,25.70
2018-12-26T05:36:11.143Z,18.20
2018-12-26T05:38:39.592Z,16.57
2018-12-26T05:41:08.007Z,18.73
2018-12-26T05:43:36.447Z,16.03
2018-12-26T05:46:04.892Z,16.87
2018-12-26T05:48:33.444Z,13.77
2018-12-26T05:51:01.902Z,15.97
2018-12-26T05:53:30.383Z,20.70
2018-12-26T05:55:58.846Z,19.67
2018-12-26T05:58:27.303Z,21.83
2018-12-26T06:00:55.751Z,23.63
2018-12-26T06:03:24.208Z,21.53
2018-12-26T06:05:52.655Z,20.67
2018-12-26T06:08:21.154Z,27.63
2018-12-26T06:10:49.601Z,22.50
2018-12-26T06:13:18.062Z,18.20
2018-12-26T06:15:46.547Z,19.23
2018-12-26T06:18:14.989Z,16.63
2018-12-26T06:20:43.447Z,19.67
2018-12-26T06:23:13.907Z,28.93
2018-12-26T06:25:42.353Z,17.77
2018-12-26T06:28:12.774Z,19.73
2018-12-26T06:30:41.262Z,17.27
2018-12-26T06:33:09.739Z,20.03
2018-12-26T06:35:38.189Z,19.43
2018-12-26T06:38:06.609Z,19.37
2018-12-26T06:40:35.079Z,8.73
2018-12-26T06:43:03.550Z,20.80
2018-12-26T06:45:32.038Z,20.50
2018-12-26T06:48:00.477Z,19.33
2018-12-26T06:50:29.515Z,17.33
2018-12-26T06:52:57.969Z,19.73
2018-12-26T06:55:26.417Z,22.23
2018-12-26T06:58:00.003Z,16.07
2018-12-26T07:00:25.057Z,12.03
2018-12-26T07:02:53.510Z,19.43
2018-12-26T07:05:21.952Z,21.30
2018-12-26T07:07:50.378Z,17.27
2018-12-26T07:10:18.893Z,16.87
2018-12-26T07:12:47.336Z,14.90
2018-12-26T07:15:15.881Z,19.07
2018-12-26T07:17:44.347Z,16.10
2018-12-26T07:20:12.849Z,18.00
2018-12-26T07:22:41.293Z,17.97
2018-12-26T07:25:09.823Z,18.60
2018-12-26T07:27:38.299Z,18.53
2018-12-26T07:30:06.802Z,16.87
2018-12-26T07:32:35.245Z,14.20
2018-12-26T07:35:04.978Z,19.77
2018-12-26T07:37:33.472Z,17.63
2018-12-26T07:40:02.992Z,22.10
2018-12-26T07:42:32.441Z,19.07
2018-12-26T07:45:00.892Z,18.33
2018-12-26T07:47:31.342Z,18.10
2018-12-26T07:49:59.802Z,18.43
2018-12-26T07:52:28.328Z,19.53
2018-12-26T07:55:09.930Z,19.10
2018-12-26T07:57:38.376Z,22.00
2018-12-26T08:00:09.267Z,18.70
2018-12-26T08:02:37.986Z,17.93
2018-12-26T08:05:06.413Z,18.47
2018-12-26T08:07:34.872Z,19.73
2018-12-26T08:10:03.334Z,17.63
2018-12-26T08:12:31.797Z,17.67
2018-12-26T08:15:00.264Z,20.43
2018-12-26T08:17:28.684Z,18.00
2018-12-26T08:19:57.762Z,21.87
2018-12-26T08:22:26.181Z,21.70
2018-12-26T08:24:54.674Z,19.03
2018-12-26T08:27:23.414Z,21.03
2018-12-26T08:29:51.870Z,18.07
2018-12-26T08:32:20.384Z,21.93
2018-12-26T08:34:48.826Z,15.17
2018-12-26T08:37:17.280Z,15.93
2018-12-26T08:39:45.706Z,18.03
2018-12-26T08:42:14.211Z,16.23
2018-12-26T08:44:42.655Z,18.20
2018-12-26T08:47:11.165Z,18.67
2018-12-26T08:49:39.618Z,22.60
2018-12-26T08:52:08.161Z,19.40
2018-12-26T08:54:36.626Z,19.57
2018-12-26T08:57:05.092Z,25.30
2018-12-26T08:59:35.069Z,22.83
2018-12-26T09:02:03.516Z,19.83
2018-12-26T09:04:34.979Z,28.50
2018-12-26T09:07:20.605Z,19.50
2018-12-26T09:09:49.109Z,23.40
2018-12-26T09:12:22.009Z,22.97
2018-12-26T09:14:50.848Z,22.37
2018-12-26T09:17:19.835Z,22.70
2018-12-26T09:19:48.441Z,21.37
2018-12-26T09:22:17.186Z,22.20
2018-12-26T09:24:46.497Z,16.90
2018-12-26T09:27:17.201Z,16.73
2018-12-26T09:29:46.143Z,24.33
2018-12-26T09:32:16.076Z,27.53
2018-12-26T09:34:44.668Z,24.03
2018-12-26T09:37:13.610Z,26.73
2018-12-26T09:39:44.083Z,25.53
2018-12-26T09:42:18.803Z,23.03
2018-12-26T09:44:54.412Z,24.50
2018-12-26T09:47:44.387Z,21.63
2018-12-26T09:49:59.577Z,21.33
2018-12-26T09:52:31.341Z,24.47
2018-12-26T09:55:06.494Z,25.00
2018-12-26T09:57:34.954Z,24.33
2018-12-26T10:00:03.718Z,24.60
2018-12-26T10:02:40.010Z,20.33
2018-12-26T10:05:08.571Z,20.83
2018-12-26T10:07:37.151Z,23.13
2018-12-26T10:10:07.584Z,19.03
2018-12-26T10:12:36.168Z,18.37
2018-12-26T10:15:06.516Z,24.97
2018-12-26T10:17:35.169Z,19.80
2018-12-26T10:20:04.437Z,19.57
2018-12-26T10:22:32.922Z,18.10
2018-12-26T10:25:09.989Z,22.50
2018-12-26T10:27:38.459Z,22.50
2018-12-26T10:30:08.166Z,23.83
2018-12-26T10:32:36.678Z,28.07
2018-12-26T10:35:09.448Z,27.43
2018-12-26T10:37:37.976Z,28.23
2018-12-26T10:40:07.765Z,25.60
2018-12-26T10:42:36.279Z,32.37
2018-12-26T10:45:16.966Z,35.57
2018-12-26T10:47:45.460Z,30.13
2018-12-26T10:50:13.932Z,32.70
2018-12-26T10:52:42.446Z,31.60
2018-12-26T10:55:23.210Z,32.20
2018-12-26T10:57:51.680Z,34.27
2018-12-26T11:00:20.129Z,32.73
2018-12-26T11:02:48.795Z,35.60
2018-12-26T11:05:17.268Z,34.93
2018-12-26T11:07:45.796Z,27.97
2018-12-26T11:10:14.282Z,30.87
2018-12-26T11:12:42.951Z,31.23
2018-12-26T11:15:11.634Z,35.00
2018-12-26T11:17:40.233Z,26.03
2018-12-26T11:20:11.764Z,32.73
2018-12-26T11:22:40.223Z,31.27
2018-12-26T11:25:08.666Z,38.10
2018-12-26T11:27:37.216Z,40.30
2018-12-26T11:30:08.944Z,34.10
2018-12-26T11:32:37.403Z,28.50
2018-12-26T11:35:07.254Z,27.30
2018-12-26T11:37:35.844Z,29.50
2018-12-26T11:40:06.775Z,26.87
2018-12-26T11:42:35.249Z,33.90
2018-12-26T11:45:03.788Z,29.87
2018-12-26T11:47:32.231Z,28.70
2018-12-26T11:50:00.774Z,26.87
2018-12-26T11:52:29.310Z,29.97
2018-12-26T11:55:00.387Z,36.60
2018-12-26T11:57:28.836Z,28.70
2018-12-26T11:59:57.386Z,28.00
2018-12-26T12:02:36.944Z,31.60
2018-12-26T12:05:05.921Z,27.07
2018-12-26T12:07:34.524Z,29.27
2018-12-26T12:10:03.191Z,25.13
2018-12-26T12:12:31.888Z,25.83
2018-12-26T12:15:00.384Z,27.00
2018-12-26T12:17:28.843Z,25.27
2018-12-26T12:19:57.421Z,23.67
2018-12-26T12:22:33.811Z,24.47
2018-12-26T12:25:02.268Z,26.03
2018-12-26T12:27:30.740Z,26.73
2018-12-26T12:29:59.218Z,28.63
2018-12-26T12:32:27.869Z,32.50
2018-12-26T12:34:56.399Z,36.47
2018-12-26T12:37:24.921Z,34.03
2018-12-26T12:39:53.581Z,38.47
2018-12-26T12:42:22.705Z,45.00
2018-12-26T12:44:51.201Z,18.83
2018-12-26T12:47:19.712Z,32.00
2018-12-26T12:49:48.213Z,33.23
2018-12-26T12:52:16.712Z,35.87
2018-12-26T12:54:45.216Z,39.77
2018-12-26T12:57:13.800Z,38.13
2018-12-26T12:59:44.925Z,29.80
2018-12-26T13:02:12.849Z,37.80
2018-12-26T13:04:41.383Z,36.37
2018-12-26T13:07:09.853Z,39.87
2018-12-26T13:09:38.327Z,31.53
2018-12-26T13:12:06.881Z,33.17
2018-12-26T13:14:35.393Z,31.57
2018-12-26T13:17:03.990Z,30.97
2018-12-26T13:19:32.485Z,34.57
2018-12-26T13:22:01.918Z,35.40
2018-12-26T13:24:30.409Z,32.97
2018-12-26T13:26:58.908Z,31.83
2018-12-26T13:29:27.392Z,37.90
2018-12-26T13:31:55.914Z,32.70
2018-12-26T13:34:24.384Z,30.23
2018-12-26T13:36:54.971Z,34.80
2018-12-26T13:39:23.418Z,32.80
2018-12-26T13:41:51.955Z,39.70
2018-12-26T13:44:20.846Z,33.77
2018-12-26T13:46:50.027Z,47.33
2018-12-26T13:49:18.779Z,41.13
2018-12-26T13:51:53.147Z,46.17
2018-12-26T13:54:21.680Z,43.73
2018-12-26T13:56:59.018Z,49.33
2018-12-26T13:59:27.599Z,47.20
2018-12-26T14:01:56.139Z,39.33
2018-12-26T14:04:24.653Z,42.77
2018-12-26T14:06:53.261Z,39.97
2018-12-26T14:09:21.808Z,43.53
2018-12-26T14:11:51.433Z,42.57
2018-12-26T14:14:34.040Z,45.43
2018-12-26T14:17:20.839Z,41.47
2018-12-26T14:19:49.401Z,47.47
2018-12-26T14:22:17.881Z,48.60
2018-12-26T14:24:46.365Z,42.30
2018-12-26T14:27:19.538Z,31.70
2018-12-26T14:29:48.043Z,36.40
2018-12-26T14:32:16.537Z,42.83
2018-12-26T14:34:45.093Z,36.80
2018-12-26T14:37:22.644Z,35.97
2018-12-26T14:39:54.259Z,38.93
2018-12-26T14:42:24.748Z,45.33
2018-12-26T14:44:53.314Z,37.87
2018-12-26T14:47:21.832Z,38.20
2018-12-26T14:49:50.347Z,41.67
2018-12-26T14:52:24.725Z,35.90
2018-12-26T14:54:53.214Z,38.03
2018-12-26T14:57:21.697Z,37.67
2018-12-26T14:59:50.300Z,36.23
2018-12-26T15:02:18.776Z,34.47
2018-12-26T15:04:47.264Z,37.53
2018-12-26T15:07:15.736Z,37.00
2018-12-26T15:09:44.187Z,31.83
2018-12-26T15:12:12.631Z,42.80
2018-12-26T15:14:41.097Z,45.00
2018-12-26T15:17:09.571Z,46.60
2018-12-26T15:19:40.955Z,36.10
2018-12-26T15:22:12.384Z,39.30
2018-12-26T15:24:40.856Z,39.80
2018-12-26T15:27:09.328Z,39.53
2018-12-26T15:29:37.836Z,35.57
2018-12-26T15:32:06.288Z,37.37
2018-12-26T15:34:34.768Z,37.27
2018-12-26T15:37:03.579Z,32.93
2018-12-26T15:39:32.110Z,36.23
2018-12-26T15:42:00.571Z,32.53
2018-12-26T15:44:29.033Z,38.10
2018-12-26T15:46:57.480Z,42.97
2018-12-26T15:49:25.968Z,46.10
2018-12-26T15:51:54.416Z,32.77
2018-12-26T15:54:22.902Z,37.33
2018-12-26T15:56:51.342Z,45.03
2018-12-26T15:59:19.816Z,45.33
2018-12-26T16:01:48.340Z,49.33
2018-12-26T16:04:16.788Z,38.97
2018-12-26T16:06:45.244Z,38.03
2018-12-26T16:09:13.707Z,42.13
2018-12-26T16:11:42.254Z,37.93
2018-12-26T16:14:10.764Z,37.67
2018-12-26T16:16:39.220Z,37.60
2018-12-26T16:19:07.687Z,40.63
2018-12-26T16:21:40.121Z,40.03
2018-12-26T16:24:08.743Z,34.63
2018-12-26T16:26:37.197Z,32.83
2018-12-26T16:29:10.631Z,30.63
2018-12-26T16:31:39.078Z,28.77
2018-12-26T16:34:19.736Z,35.33
2018-12-26T16:36:48.188Z,33.03
2018-12-26T16:39:16.622Z,33.60
2018-12-26T16:41:45.084Z,36.83
2018-12-26T16:44:13.624Z,37.10
2018-12-26T16:46:42.108Z,33.30
2018-12-26T16:49:10.587Z,29.73
2018-12-26T16:51:39.111Z,36.77
2018-12-26T16:54:07.556Z,33.93
2018-12-26T16:56:36.002Z,31.70
2018-12-26T16:59:04.436Z,29.63
2018-12-26T17:01:32.967Z,30.03
2018-12-26T17:04:01.469Z,26.73
2018-12-26T17:06:29.928Z,35.57
2018-12-26T17:08:58.369Z,31.70
2018-12-26T17:11:26.827Z,35.17
2018-12-26T17:13:55.267Z,29.93
2018-12-26T17:16:23.735Z,29.60
2018-12-26T17:18:52.172Z,31.77
2018-12-26T17:21:20.684Z,33.07
2018-12-26T17:23:49.150Z,29.43
2018-12-26T17:26:17.583Z,29.73
2018-12-26T17:28:46.032Z,35.57
2018-12-26T17:31:14.492Z,36.00
2018-12-26T17:33:42.947Z,31.90
2018-12-26T17:36:11.389Z,33.20
2018-12-26T17:38:39.835Z,32.83
2018-12-26T17:41:08.297Z,36.70
2018-12-26T17:43:36.755Z,33.80
2018-12-26T17:46:06.579Z,33.20
2018-12-26T17:48:35.106Z,35.33
2018-12-26T17:51:06.235Z,38.33
2018-12-26T17:53:37.791Z,34.77
2018-12-26T17:56:14.873Z,38.17
2018-12-26T17:59:10.745Z,38.37
2018-12-26T18:01:42.385Z,38.00
2018-12-26T18:04:10.864Z,49.83
2018-12-26T18:06:39.341Z,43.37
2018-12-26T18:09:07.894Z,37.53
2018-12-26T18:11:36.327Z,39.53
2018-12-26T18:14:04.913Z,41.03
2018-12-26T18:16:33.360Z,37.03
2018-12-26T18:19:01.867Z,36.03
2018-12-26T18:21:30.447Z,31.20
2018-12-26T18:24:04.099Z,37.27
2018-12-26T18:26:32.879Z,37.93
2018-12-26T18:29:02.715Z,40.60
2018-12-26T18:31:42.782Z,38.67
2018-12-26T18:34:12.540Z,35.07
2018-12-26T18:36:43.151Z,39.17
2018-12-26T18:39:12.239Z,46.30
2018-12-26T18:41:43.671Z,42.60
2018-12-26T18:44:12.936Z,46.03
2018-12-26T18:46:42.891Z,39.30
2018-12-26T18:49:11.538Z,44.10
2018-12-26T18:51:40.096Z,40.73
2018-12-26T18:54:12.011Z,39.10
2018-12-26T18:56:49.409Z,36.67
2018-12-26T19:00:22.140Z,40.17
2018-12-26T19:03:16.677Z,44.30
2018-12-26T19:18:54.358Z,40.20
2018-12-26T19:21:22.918Z,34.00
2018-12-26T19:24:03.918Z,34.77
2018-12-26T19:26:34.257Z,32.60
2018-12-26T19:29:05.783Z,33.47
2018-12-26T19:31:39.415Z,38.10
2018-12-26T19:34:07.194Z,35.77
2018-12-26T19:36:36.417Z,39.67
2018-12-26T19:39:06.371Z,38.43
2018-12-26T19:41:34.988Z,35.13
2018-12-26T19:46:59.747Z,32.90
2018-12-26T19:49:28.150Z,36.07
2018-12-26T19:51:56.756Z,42.50
2018-12-26T19:54:25.280Z,39.43
2018-12-26T19:56:53.773Z,36.37
2018-12-26T20:02:18.027Z,49.43
2018-12-26T20:04:46.457Z,51.33
2018-12-26T20:07:14.920Z,44.33
2018-12-26T20:09:43.449Z,41.53
2018-12-26T20:12:12.173Z,46.67
2018-12-26T20:14:40.648Z,47.43
2018-12-26T20:17:09.088Z,40.00
2018-12-26T20:19:44.438Z,42.63
2018-12-26T20:22:12.994Z,46.17
2018-12-26T20:24:57.672Z,42.20
2018-12-26T20:27:26.129Z,35.07
2018-12-26T20:29:54.605Z,36.87
2018-12-26T20:32:23.187Z,36.93
2018-12-26T20:34:51.632Z,36.23
2018-12-26T20:37:20.660Z,33.17
2018-12-26T20:39:49.137Z,33.13
2018-12-26T20:42:18.563Z,33.10
2018-12-26T20:44:56.595Z,30.33
2018-12-26T20:47:45.152Z,28.87
2018-12-26T20:50:13.703Z,34.10
2018-12-26T20:52:42.397Z,26.37
2018-12-26T20:55:11.093Z,23.47
2018-12-26T20:57:39.765Z,22.47
2018-12-26T21:00:09.789Z,28.97
2018-12-26T21:02:38.423Z,26.43
2018-12-26T21:05:08.620Z,27.03
2018-12-26T21:07:40.143Z,26.20
2018-12-26T21:10:09.427Z,29.67
2018-12-26T21:12:38.494Z,28.90
2018-12-26T21:15:07.823Z,30.90
2018-12-26T21:17:37.411Z,23.07
2018-12-26T21:20:07.883Z,23.90
2018-12-26T21:22:36.609Z,24.23
2018-12-26T21:25:06.919Z,26.83
2018-12-26T21:27:35.905Z,29.90
2018-12-26T21:30:08.079Z,27.80
2018-12-26T21:32:37.035Z,25.90
2018-12-26T21:35:06.016Z,23.87
2018-12-26T21:37:34.766Z,25.87
2018-12-26T21:40:07.195Z,25.60
2018-12-26T21:42:36.552Z,27.60
2018-12-26T21:45:07.656Z,23.10
2018-12-26T21:47:36.276Z,27.37
2018-12-26T21:50:09.051Z,24.40
2018-12-26T21:52:37.864Z,24.87
2018-12-26T21:55:09.407Z,24.83
2018-12-26T21:57:38.456Z,23.80
2018-12-26T22:00:09.047Z,26.07
2018-12-26T22:02:37.653Z,28.43
2018-12-26T22:05:06.521Z,31.77
2018-12-26T22:07:35.348Z,23.80
2018-12-26T22:10:06.908Z,25.13
2018-12-26T22:12:35.899Z,20.63
2018-12-26T22:15:07.475Z,27.60
2018-12-26T22:17:36.489Z,22.30
2018-12-26T22:20:07.038Z,28.03
2018-12-26T22:22:35.935Z,35.73
2018-12-26T22:25:12.439Z,27.10
2018-12-26T22:27:41.607Z,29.37
2018-12-26T22:30:11.421Z,30.40
2018-12-26T22:32:39.898Z,27.30
2018-12-26T22:35:28.718Z,28.10
2018-12-26T22:37:59.271Z,26.03
2018-12-26T22:40:27.746Z,30.83
2018-12-26T22:42:56.763Z,27.20
2018-12-26T22:45:25.311Z,31.10
2018-12-26T22:47:54.862Z,26.07
2018-12-26T22:50:23.549Z,30.10
2018-12-26T22:53:04.545Z,30.37
2018-12-26T22:55:33.848Z,33.23
2018-12-26T22:58:04.023Z,27.73
2018-12-26T23:00:34.178Z,28.07
2018-12-26T23:03:02.904Z,24.47
2018-12-26T23:05:32.594Z,33.00
2018-12-26T23:08:01.053Z,26.70
2018-12-26T23:10:30.244Z,26.33
2018-12-26T23:12:58.708Z,23.37
2018-12-26T23:15:28.102Z,23.80
2018-12-26T23:18:18.160Z,20.50
2018-12-26T23:20:46.622Z,21.50
2018-12-26T23:23:25.429Z,27.87
2018-12-26T23:25:53.884Z,24.97
2018-12-26T23:28:25.078Z,23.93
2018-12-26T23:30:54.556Z,22.17
2018-12-26T23:33:23.111Z,24.87
2018-12-26T23:35:51.554Z,21.90
2018-12-26T23:38:29.005Z,22.00
2018-12-26T23:40:57.469Z,25.37
2018-12-26T23:43:25.916Z,21.43
2018-12-26T23:45:54.345Z,21.73
2018-12-26T23:48:23.543Z,25.20
2018-12-26T23:50:51.979Z,25.70
2018-12-26T23:53:20.420Z,20.20
2018-12-26T23:55:48.859Z,27.07
2018-12-26T23:58:17.788Z,26.40
